sensor_id;sensor_type;location;lat;lon;timestamp;P1;durP1;ratioP1;P2;durP2;ratioP2
27491;SDS011;14927;51.210;6.838;2023-07-13T00:00:31;3.25;;;0.85;;
27491;SDS011;14927;51.210;6.838;2023-07-13T00:03:16;5.70;;;1.17;;
27491;SDS011;14927;51.210;6.838;2023-07-13T00:06:01;3.50;;;1.23;;
27491;SDS011;14927;51.210;6.838;2023-07-13T00:08:46;3.72;;;0.98;;
27491;SDS011;14927;51.210;6.838;2023-07-13T00:11:32;4.55;;;0.98;;
27491;SDS011;14927;51.210;6.838;2023-07-13T00:14:17;4.05;;;0.82;;
27491;SDS011;14927;51.210;6.838;2023-07-13T00:17:02;8.13;;;1.17;;
27491;SDS011;14927;51.210;6.838;2023-07-13T00:19:48;2.97;;;0.80;;
27491;SDS011;14927;51.210;6.838;2023-07-13T00:22:32;2.88;;;0.88;;
27491;SDS011;14927;51.210;6.838;2023-07-13T00:25:17;3.22;;;1.00;;
27491;SDS011;14927;51.210;6.838;2023-07-13T00:28:02;5.18;;;1.10;;
27491;SDS011;14927;51.210;6.838;2023-07-13T00:30:46;4.47;;;1.05;;
27491;SDS011;14927;51.210;6.838;2023-07-13T00:33:31;4.07;;;1.38;;
27491;SDS011;14927;51.210;6.838;2023-07-13T00:36:17;4.97;;;1.05;;
27491;SDS011;14927;51.210;6.838;2023-07-13T00:39:01;4.32;;;1.20;;
27491;SDS011;14927;51.210;6.838;2023-07-13T00:41:47;2.78;;;1.10;;
27491;SDS011;14927;51.210;6.838;2023-07-13T00:44:32;2.85;;;1.02;;
27491;SDS011;14927;51.210;6.838;2023-07-13T00:50:29;3.22;;;0.93;;
27491;SDS011;14927;51.210;6.838;2023-07-13T00:53:14;7.53;;;1.67;;
27491;SDS011;14927;51.210;6.838;2023-07-13T00:55:58;4.53;;;1.40;;
27491;SDS011;14927;51.210;6.838;2023-07-13T00:58:44;6.75;;;1.27;;
27491;SDS011;14927;51.210;6.838;2023-07-13T01:01:29;4.30;;;1.58;;
27491;SDS011;14927;51.210;6.838;2023-07-13T01:04:14;6.65;;;1.20;;
27491;SDS011;14927;51.210;6.838;2023-07-13T01:06:58;6.45;;;2.22;;
27491;SDS011;14927;51.210;6.838;2023-07-13T01:09:43;8.40;;;1.90;;
27491;SDS011;14927;51.210;6.838;2023-07-13T01:12:28;5.78;;;1.40;;
27491;SDS011;14927;51.210;6.838;2023-07-13T01:18:22;5.60;;;1.50;;
27491;SDS011;14927;51.210;6.838;2023-07-13T01:21:10;9.05;;;1.58;;
27491;SDS011;14927;51.210;6.838;2023-07-13T01:23:54;5.63;;;1.33;;
27491;SDS011;14927;51.210;6.838;2023-07-13T01:26:39;6.55;;;1.77;;
27491;SDS011;14927;51.210;6.838;2023-07-13T01:29:24;4.53;;;1.75;;
27491;SDS011;14927;51.210;6.838;2023-07-13T01:32:09;5.97;;;1.88;;
27491;SDS011;14927;51.210;6.838;2023-07-13T01:34:56;4.80;;;1.92;;
27491;SDS011;14927;51.210;6.838;2023-07-13T01:37:41;3.97;;;1.60;;
27491;SDS011;14927;51.210;6.838;2023-07-13T01:40:26;3.60;;;1.20;;
27491;SDS011;14927;51.210;6.838;2023-07-13T01:43:11;3.38;;;1.10;;
27491;SDS011;14927;51.210;6.838;2023-07-13T01:45:56;3.22;;;1.30;;
27491;SDS011;14927;51.210;6.838;2023-07-13T01:48:41;3.53;;;0.90;;
27491;SDS011;14927;51.210;6.838;2023-07-13T01:51:25;4.00;;;1.10;;
27491;SDS011;14927;51.210;6.838;2023-07-13T01:54:10;4.07;;;1.13;;
27491;SDS011;14927;51.210;6.838;2023-07-13T01:56:54;5.50;;;1.15;;
27491;SDS011;14927;51.210;6.838;2023-07-13T01:59:42;5.05;;;1.27;;
27491;SDS011;14927;51.210;6.838;2023-07-13T02:02:27;4.00;;;0.85;;
27491;SDS011;14927;51.210;6.838;2023-07-13T02:05:12;5.07;;;1.20;;
27491;SDS011;14927;51.210;6.838;2023-07-13T02:07:56;2.45;;;0.95;;
27491;SDS011;14927;51.210;6.838;2023-07-13T02:10:41;4.20;;;1.02;;
27491;SDS011;14927;51.210;6.838;2023-07-13T02:13:26;4.05;;;0.90;;
27491;SDS011;14927;51.210;6.838;2023-07-13T02:16:11;5.40;;;0.90;;
27491;SDS011;14927;51.210;6.838;2023-07-13T02:18:55;7.97;;;1.88;;
27491;SDS011;14927;51.210;6.838;2023-07-13T02:21:40;6.22;;;1.13;;
27491;SDS011;14927;51.210;6.838;2023-07-13T02:24:25;2.80;;;1.27;;
27491;SDS011;14927;51.210;6.838;2023-07-13T02:27:09;3.58;;;1.30;;
27491;SDS011;14927;51.210;6.838;2023-07-13T02:29:54;3.10;;;1.30;;
27491;SDS011;14927;51.210;6.838;2023-07-13T02:32:38;3.65;;;0.90;;
27491;SDS011;14927;51.210;6.838;2023-07-13T02:35:23;5.85;;;1.23;;
27491;SDS011;14927;51.210;6.838;2023-07-13T02:38:08;3.70;;;1.00;;
27491;SDS011;14927;51.210;6.838;2023-07-13T02:40:52;4.60;;;1.10;;
27491;SDS011;14927;51.210;6.838;2023-07-13T02:43:37;5.35;;;1.30;;
27491;SDS011;14927;51.210;6.838;2023-07-13T02:46:22;3.35;;;0.98;;
27491;SDS011;14927;51.210;6.838;2023-07-13T02:49:07;4.93;;;1.00;;
27491;SDS011;14927;51.210;6.838;2023-07-13T02:51:52;6.40;;;1.50;;
27491;SDS011;14927;51.210;6.838;2023-07-13T02:54:37;4.18;;;1.00;;
27491;SDS011;14927;51.210;6.838;2023-07-13T02:57:21;4.93;;;1.40;;
27491;SDS011;14927;51.210;6.838;2023-07-13T03:00:06;6.75;;;1.20;;
27491;SDS011;14927;51.210;6.838;2023-07-13T03:02:52;2.95;;;0.80;;
27491;SDS011;14927;51.210;6.838;2023-07-13T03:05:40;6.13;;;1.52;;
27491;SDS011;14927;51.210;6.838;2023-07-13T03:08:28;5.45;;;0.90;;
27491;SDS011;14927;51.210;6.838;2023-07-13T03:11:14;4.75;;;1.30;;
27491;SDS011;14927;51.210;6.838;2023-07-13T03:14:01;3.50;;;0.95;;
27491;SDS011;14927;51.210;6.838;2023-07-13T03:16:46;2.20;;;0.90;;
27491;SDS011;14927;51.210;6.838;2023-07-13T03:19:30;6.35;;;1.17;;
27491;SDS011;14927;51.210;6.838;2023-07-13T03:22:16;4.57;;;1.35;;
27491;SDS011;14927;51.210;6.838;2023-07-13T03:25:04;6.07;;;1.23;;
27491;SDS011;14927;51.210;6.838;2023-07-13T03:27:48;5.60;;;1.05;;
27491;SDS011;14927;51.210;6.838;2023-07-13T03:30:33;4.68;;;1.05;;
27491;SDS011;14927;51.210;6.838;2023-07-13T03:33:17;5.60;;;1.42;;
27491;SDS011;14927;51.210;6.838;2023-07-13T03:36:03;4.88;;;1.70;;
27491;SDS011;14927;51.210;6.838;2023-07-13T03:38:50;2.10;;;0.90;;
27491;SDS011;14927;51.210;6.838;2023-07-13T03:41:40;4.70;;;1.27;;
27491;SDS011;14927;51.210;6.838;2023-07-13T03:44:24;6.50;;;1.45;;
27491;SDS011;14927;51.210;6.838;2023-07-13T03:47:09;2.42;;;0.90;;
27491;SDS011;14927;51.210;6.838;2023-07-13T03:49:54;3.78;;;1.20;;
27491;SDS011;14927;51.210;6.838;2023-07-13T03:52:38;4.32;;;1.02;;
27491;SDS011;14927;51.210;6.838;2023-07-13T03:55:23;4.47;;;1.15;;
27491;SDS011;14927;51.210;6.838;2023-07-13T03:58:27;5.15;;;1.35;;
27491;SDS011;14927;51.210;6.838;2023-07-13T04:01:17;4.00;;;1.42;;
27491;SDS011;14927;51.210;6.838;2023-07-13T04:04:04;7.43;;;1.52;;
27491;SDS011;14927;51.210;6.838;2023-07-13T04:06:49;3.28;;;1.30;;
27491;SDS011;14927;51.210;6.838;2023-07-13T04:09:33;6.20;;;1.50;;
27491;SDS011;14927;51.210;6.838;2023-07-13T04:12:19;6.25;;;1.60;;
27491;SDS011;14927;51.210;6.838;2023-07-13T04:15:03;5.95;;;2.08;;
27491;SDS011;14927;51.210;6.838;2023-07-13T04:17:48;5.80;;;1.48;;
27491;SDS011;14927;51.210;6.838;2023-07-13T04:20:33;7.80;;;1.33;;
27491;SDS011;14927;51.210;6.838;2023-07-13T04:23:18;3.63;;;1.35;;
27491;SDS011;14927;51.210;6.838;2023-07-13T04:26:02;9.57;;;1.55;;
27491;SDS011;14927;51.210;6.838;2023-07-13T04:28:47;6.22;;;1.58;;
27491;SDS011;14927;51.210;6.838;2023-07-13T04:31:32;7.40;;;1.67;;
27491;SDS011;14927;51.210;6.838;2023-07-13T04:34:17;4.50;;;1.30;;
27491;SDS011;14927;51.210;6.838;2023-07-13T04:37:02;5.63;;;1.65;;
27491;SDS011;14927;51.210;6.838;2023-07-13T04:39:48;5.97;;;2.20;;
27491;SDS011;14927;51.210;6.838;2023-07-13T04:42:32;3.58;;;1.38;;
27491;SDS011;14927;51.210;6.838;2023-07-13T04:45:18;7.38;;;1.70;;
27491;SDS011;14927;51.210;6.838;2023-07-13T04:48:03;4.05;;;1.33;;
27491;SDS011;14927;51.210;6.838;2023-07-13T04:50:48;6.60;;;1.63;;
27491;SDS011;14927;51.210;6.838;2023-07-13T04:53:39;3.92;;;1.20;;
27491;SDS011;14927;51.210;6.838;2023-07-13T04:56:24;3.88;;;1.15;;
27491;SDS011;14927;51.210;6.838;2023-07-13T04:59:08;2.97;;;1.35;;
27491;SDS011;14927;51.210;6.838;2023-07-13T05:01:53;7.53;;;1.35;;
27491;SDS011;14927;51.210;6.838;2023-07-13T05:04:37;6.97;;;1.58;;
27491;SDS011;14927;51.210;6.838;2023-07-13T05:07:22;5.22;;;1.55;;
27491;SDS011;14927;51.210;6.838;2023-07-13T05:10:07;3.85;;;1.30;;
27491;SDS011;14927;51.210;6.838;2023-07-13T05:12:52;4.97;;;1.23;;
27491;SDS011;14927;51.210;6.838;2023-07-13T05:15:37;5.22;;;2.03;;
27491;SDS011;14927;51.210;6.838;2023-07-13T05:18:21;7.10;;;1.67;;
27491;SDS011;14927;51.210;6.838;2023-07-13T05:21:07;6.15;;;1.38;;
27491;SDS011;14927;51.210;6.838;2023-07-13T05:23:54;7.43;;;1.55;;
27491;SDS011;14927;51.210;6.838;2023-07-13T05:26:38;5.65;;;1.50;;
27491;SDS011;14927;51.210;6.838;2023-07-13T05:29:23;4.90;;;1.30;;
27491;SDS011;14927;51.210;6.838;2023-07-13T05:32:08;8.10;;;1.27;;
27491;SDS011;14927;51.210;6.838;2023-07-13T05:34:53;11.23;;;1.30;;
27491;SDS011;14927;51.210;6.838;2023-07-13T05:37:38;6.80;;;1.55;;
27491;SDS011;14927;51.210;6.838;2023-07-13T05:40:22;3.88;;;1.20;;
27491;SDS011;14927;51.210;6.838;2023-07-13T05:43:07;5.65;;;1.48;;
27491;SDS011;14927;51.210;6.838;2023-07-13T05:45:55;6.97;;;1.67;;
27491;SDS011;14927;51.210;6.838;2023-07-13T05:48:40;4.00;;;1.40;;
27491;SDS011;14927;51.210;6.838;2023-07-13T05:51:26;6.38;;;1.40;;
27491;SDS011;14927;51.210;6.838;2023-07-13T05:54:10;6.10;;;1.58;;
27491;SDS011;14927;51.210;6.838;2023-07-13T05:56:55;11.63;;;1.90;;
27491;SDS011;14927;51.210;6.838;2023-07-13T05:59:39;5.93;;;1.33;;
27491;SDS011;14927;51.210;6.838;2023-07-13T06:02:24;9.18;;;1.90;;
27491;SDS011;14927;51.210;6.838;2023-07-13T06:05:10;9.55;;;1.80;;
27491;SDS011;14927;51.210;6.838;2023-07-13T06:07:55;8.73;;;2.17;;
27491;SDS011;14927;51.210;6.838;2023-07-13T06:10:39;9.73;;;1.88;;
27491;SDS011;14927;51.210;6.838;2023-07-13T06:13:24;8.55;;;1.52;;
27491;SDS011;14927;51.210;6.838;2023-07-13T06:16:09;8.50;;;1.95;;
27491;SDS011;14927;51.210;6.838;2023-07-13T06:18:54;7.50;;;2.05;;
27491;SDS011;14927;51.210;6.838;2023-07-13T06:21:38;4.82;;;1.90;;
27491;SDS011;14927;51.210;6.838;2023-07-13T06:24:23;8.43;;;1.75;;
27491;SDS011;14927;51.210;6.838;2023-07-13T06:27:08;7.10;;;1.40;;
27491;SDS011;14927;51.210;6.838;2023-07-13T06:29:53;9.68;;;2.63;;
27491;SDS011;14927;51.210;6.838;2023-07-13T06:32:37;7.18;;;2.25;;
27491;SDS011;14927;51.210;6.838;2023-07-13T06:35:22;6.53;;;2.20;;
27491;SDS011;14927;51.210;6.838;2023-07-13T06:38:06;8.15;;;1.85;;
27491;SDS011;14927;51.210;6.838;2023-07-13T06:40:54;7.95;;;1.73;;
27491;SDS011;14927;51.210;6.838;2023-07-13T06:43:39;9.07;;;2.05;;
27491;SDS011;14927;51.210;6.838;2023-07-13T06:46:24;12.25;;;2.10;;
27491;SDS011;14927;51.210;6.838;2023-07-13T06:49:09;9.65;;;2.42;;
27491;SDS011;14927;51.210;6.838;2023-07-13T06:51:53;5.60;;;1.90;;
27491;SDS011;14927;51.210;6.838;2023-07-13T06:54:38;6.40;;;1.90;;
27491;SDS011;14927;51.210;6.838;2023-07-13T06:57:23;9.15;;;2.00;;
27491;SDS011;14927;51.210;6.838;2023-07-13T07:00:08;8.82;;;2.00;;
27491;SDS011;14927;51.210;6.838;2023-07-13T07:02:53;5.93;;;1.63;;
27491;SDS011;14927;51.210;6.838;2023-07-13T07:05:37;5.65;;;1.70;;
27491;SDS011;14927;51.210;6.838;2023-07-13T07:08:22;6.57;;;1.88;;
27491;SDS011;14927;51.210;6.838;2023-07-13T07:11:14;5.82;;;1.70;;
27491;SDS011;14927;51.210;6.838;2023-07-13T07:14:02;6.00;;;1.40;;
27491;SDS011;14927;51.210;6.838;2023-07-13T07:16:46;7.78;;;1.67;;
27491;SDS011;14927;51.210;6.838;2023-07-13T07:19:31;9.00;;;1.75;;
27491;SDS011;14927;51.210;6.838;2023-07-13T07:22:16;6.60;;;1.65;;
27491;SDS011;14927;51.210;6.838;2023-07-13T07:25:00;6.70;;;1.85;;
27491;SDS011;14927;51.210;6.838;2023-07-13T07:27:45;6.97;;;1.85;;
27491;SDS011;14927;51.210;6.838;2023-07-13T07:30:29;7.03;;;1.73;;
27491;SDS011;14927;51.210;6.838;2023-07-13T07:33:14;5.25;;;1.67;;
27491;SDS011;14927;51.210;6.838;2023-07-13T07:36:00;11.27;;;2.58;;
27491;SDS011;14927;51.210;6.838;2023-07-13T07:38:45;13.30;;;2.92;;
27491;SDS011;14927;51.210;6.838;2023-07-13T07:41:29;6.35;;;2.28;;
27491;SDS011;14927;51.210;6.838;2023-07-13T07:44:14;7.40;;;1.90;;
27491;SDS011;14927;51.210;6.838;2023-07-13T07:46:59;8.70;;;2.13;;
27491;SDS011;14927;51.210;6.838;2023-07-13T07:49:44;9.20;;;1.70;;
27491;SDS011;14927;51.210;6.838;2023-07-13T07:52:29;9.75;;;1.67;;
27491;SDS011;14927;51.210;6.838;2023-07-13T07:55:13;9.75;;;2.03;;
27491;SDS011;14927;51.210;6.838;2023-07-13T07:57:58;6.40;;;1.77;;
27491;SDS011;14927;51.210;6.838;2023-07-13T08:00:43;10.10;;;2.30;;
27491;SDS011;14927;51.210;6.838;2023-07-13T08:03:28;6.30;;;1.92;;
27491;SDS011;14927;51.210;6.838;2023-07-13T08:06:12;9.07;;;2.58;;
27491;SDS011;14927;51.210;6.838;2023-07-13T08:08:57;6.72;;;2.25;;
27491;SDS011;14927;51.210;6.838;2023-07-13T08:11:41;6.90;;;2.00;;
27491;SDS011;14927;51.210;6.838;2023-07-13T08:14:26;8.82;;;2.03;;
27491;SDS011;14927;51.210;6.838;2023-07-13T08:17:11;9.50;;;2.05;;
27491;SDS011;14927;51.210;6.838;2023-07-13T08:19:55;8.05;;;2.13;;
27491;SDS011;14927;51.210;6.838;2023-07-13T08:22:40;6.15;;;1.58;;
27491;SDS011;14927;51.210;6.838;2023-07-13T08:25:24;6.65;;;1.80;;
27491;SDS011;14927;51.210;6.838;2023-07-13T08:28:09;8.95;;;1.90;;
27491;SDS011;14927;51.210;6.838;2023-07-13T08:30:54;5.90;;;1.65;;
27491;SDS011;14927;51.210;6.838;2023-07-13T08:33:38;10.23;;;2.25;;
27491;SDS011;14927;51.210;6.838;2023-07-13T08:36:25;6.90;;;1.70;;
27491;SDS011;14927;51.210;6.838;2023-07-13T08:39:11;9.57;;;2.63;;
27491;SDS011;14927;51.210;6.838;2023-07-13T08:41:57;9.48;;;2.28;;
27491;SDS011;14927;51.210;6.838;2023-07-13T08:45:07;10.98;;;2.15;;
27491;SDS011;14927;51.210;6.838;2023-07-13T08:48:16;6.03;;;1.63;;
27491;SDS011;14927;51.210;6.838;2023-07-13T08:51:27;5.38;;;1.88;;
27491;SDS011;14927;51.210;6.838;2023-07-13T08:57:17;7.53;;;1.90;;
27491;SDS011;14927;51.210;6.838;2023-07-13T09:00:05;7.53;;;2.08;;
27491;SDS011;14927;51.210;6.838;2023-07-13T09:02:57;8.90;;;2.13;;
27491;SDS011;14927;51.210;6.838;2023-07-13T09:05:43;11.35;;;3.13;;
27491;SDS011;14927;51.210;6.838;2023-07-13T09:15:39;8.98;;;2.22;;
27491;SDS011;14927;51.210;6.838;2023-07-13T09:18:33;8.07;;;2.38;;
27491;SDS011;14927;51.210;6.838;2023-07-13T09:21:22;8.55;;;2.35;;
27491;SDS011;14927;51.210;6.838;2023-07-13T09:24:35;6.40;;;2.15;;
27491;SDS011;14927;51.210;6.838;2023-07-13T09:27:31;7.45;;;1.67;;
27491;SDS011;14927;51.210;6.838;2023-07-13T09:30:30;8.30;;;1.75;;
27491;SDS011;14927;51.210;6.838;2023-07-13T09:33:39;5.22;;;1.85;;
27491;SDS011;14927;51.210;6.838;2023-07-13T09:36:24;7.07;;;2.50;;
27491;SDS011;14927;51.210;6.838;2023-07-13T09:42:26;6.68;;;1.83;;
27491;SDS011;14927;51.210;6.838;2023-07-13T09:45:12;7.90;;;1.95;;
27491;SDS011;14927;51.210;6.838;2023-07-13T09:48:13;7.68;;;1.80;;
27491;SDS011;14927;51.210;6.838;2023-07-13T09:51:02;7.57;;;1.55;;
27491;SDS011;14927;51.210;6.838;2023-07-13T09:53:58;10.77;;;1.95;;
27491;SDS011;14927;51.210;6.838;2023-07-13T09:56:43;7.40;;;1.88;;
27491;SDS011;14927;51.210;6.838;2023-07-13T09:59:29;3.85;;;1.30;;
27491;SDS011;14927;51.210;6.838;2023-07-13T10:05:14;7.03;;;1.77;;
27491;SDS011;14927;51.210;6.838;2023-07-13T10:08:00;5.32;;;1.60;;
27491;SDS011;14927;51.210;6.838;2023-07-13T10:10:45;7.22;;;1.40;;
27491;SDS011;14927;51.210;6.838;2023-07-13T10:13:35;9.60;;;1.90;;
27491;SDS011;14927;51.210;6.838;2023-07-13T10:16:25;5.60;;;1.58;;
27491;SDS011;14927;51.210;6.838;2023-07-13T10:19:24;6.70;;;1.60;;
27491;SDS011;14927;51.210;6.838;2023-07-13T10:22:20;5.80;;;1.80;;
27491;SDS011;14927;51.210;6.838;2023-07-13T10:25:48;7.00;;;1.92;;
27491;SDS011;14927;51.210;6.838;2023-07-13T10:28:37;6.65;;;2.28;;
27491;SDS011;14927;51.210;6.838;2023-07-13T10:31:24;7.13;;;1.85;;
27491;SDS011;14927;51.210;6.838;2023-07-13T10:34:09;5.22;;;1.42;;
27491;SDS011;14927;51.210;6.838;2023-07-13T10:36:55;3.45;;;1.55;;
27491;SDS011;14927;51.210;6.838;2023-07-13T10:39:40;5.32;;;1.48;;
27491;SDS011;14927;51.210;6.838;2023-07-13T10:42:27;4.90;;;1.50;;
27491;SDS011;14927;51.210;6.838;2023-07-13T10:45:25;6.53;;;1.67;;
27491;SDS011;14927;51.210;6.838;2023-07-13T10:48:13;5.38;;;1.40;;
27491;SDS011;14927;51.210;6.838;2023-07-13T10:50:58;4.90;;;1.42;;
27491;SDS011;14927;51.210;6.838;2023-07-13T10:53:45;5.18;;;1.80;;
27491;SDS011;14927;51.210;6.838;2023-07-13T10:56:29;4.30;;;1.20;;
27491;SDS011;14927;51.210;6.838;2023-07-13T10:59:18;6.10;;;1.50;;
27491;SDS011;14927;51.210;6.838;2023-07-13T11:02:13;10.07;;;2.08;;
27491;SDS011;14927;51.210;6.838;2023-07-13T11:05:25;6.07;;;2.08;;
27491;SDS011;14927;51.210;6.838;2023-07-13T11:08:18;7.57;;;1.88;;
27491;SDS011;14927;51.210;6.838;2023-07-13T11:14:25;4.72;;;1.50;;
27491;SDS011;14927;51.210;6.838;2023-07-13T11:23:09;4.13;;;1.13;;
27491;SDS011;14927;51.210;6.838;2023-07-13T11:29:36;3.50;;;1.20;;
27491;SDS011;14927;51.210;6.838;2023-07-13T11:32:24;4.75;;;1.75;;
27491;SDS011;14927;51.210;6.838;2023-07-13T11:35:24;9.02;;;1.60;;
27491;SDS011;14927;51.210;6.838;2023-07-13T11:38:15;2.65;;;0.98;;
27491;SDS011;14927;51.210;6.838;2023-07-13T11:41:43;4.75;;;1.38;;
27491;SDS011;14927;51.210;6.838;2023-07-13T11:44:42;2.30;;;0.90;;
27491;SDS011;14927;51.210;6.838;2023-07-13T11:47:33;3.13;;;1.05;;
27491;SDS011;14927;51.210;6.838;2023-07-13T11:50:22;3.63;;;1.23;;
27491;SDS011;14927;51.210;6.838;2023-07-13T11:53:08;4.10;;;1.85;;
27491;SDS011;14927;51.210;6.838;2023-07-13T11:55:53;3.83;;;1.27;;
27491;SDS011;14927;51.210;6.838;2023-07-13T11:58:38;6.78;;;1.45;;
27491;SDS011;14927;51.210;6.838;2023-07-13T12:01:24;4.10;;;1.50;;
27491;SDS011;14927;51.210;6.838;2023-07-13T12:04:20;2.65;;;1.00;;
27491;SDS011;14927;51.210;6.838;2023-07-13T12:07:11;5.80;;;1.20;;
27491;SDS011;14927;51.210;6.838;2023-07-13T12:10:01;4.03;;;1.38;;
27491;SDS011;14927;51.210;6.838;2023-07-13T12:13:03;8.38;;;1.85;;
27491;SDS011;14927;51.210;6.838;2023-07-13T12:15:51;4.70;;;0.90;;
27491;SDS011;14927;51.210;6.838;2023-07-13T12:18:36;8.55;;;1.33;;
27491;SDS011;14927;51.210;6.838;2023-07-13T12:21:21;5.28;;;1.25;;
27491;SDS011;14927;51.210;6.838;2023-07-13T12:24:21;4.43;;;1.35;;
27491;SDS011;14927;51.210;6.838;2023-07-13T12:27:40;2.85;;;1.02;;
27491;SDS011;14927;51.210;6.838;2023-07-13T12:30:25;4.45;;;1.20;;
27491;SDS011;14927;51.210;6.838;2023-07-13T12:33:17;7.50;;;0.95;;
27491;SDS011;14927;51.210;6.838;2023-07-13T12:36:03;4.55;;;1.30;;
27491;SDS011;14927;51.210;6.838;2023-07-13T12:38:50;2.45;;;0.90;;
27491;SDS011;14927;51.210;6.838;2023-07-13T12:41:35;2.85;;;0.88;;
27491;SDS011;14927;51.210;6.838;2023-07-13T12:44:29;3.25;;;0.80;;
27491;SDS011;14927;51.210;6.838;2023-07-13T12:47:15;1.70;;;0.93;;
27491;SDS011;14927;51.210;6.838;2023-07-13T12:50:02;1.92;;;0.77;;
27491;SDS011;14927;51.210;6.838;2023-07-13T12:52:50;1.70;;;0.90;;
27491;SDS011;14927;51.210;6.838;2023-07-13T12:55:46;2.28;;;1.08;;
27491;SDS011;14927;51.210;6.838;2023-07-13T12:58:43;4.47;;;1.00;;
27491;SDS011;14927;51.210;6.838;2023-07-13T13:01:31;5.40;;;1.20;;
27491;SDS011;14927;51.210;6.838;2023-07-13T13:04:18;3.80;;;1.23;;
27491;SDS011;14927;51.210;6.838;2023-07-13T13:07:05;2.60;;;1.10;;
27491;SDS011;14927;51.210;6.838;2023-07-13T13:09:54;1.80;;;0.93;;
27491;SDS011;14927;51.210;6.838;2023-07-13T13:12:38;5.47;;;1.20;;
27491;SDS011;14927;51.210;6.838;2023-07-13T13:15:26;5.43;;;1.13;;
27491;SDS011;14927;51.210;6.838;2023-07-13T13:18:28;9.57;;;1.15;;
27491;SDS011;14927;51.210;6.838;2023-07-13T13:21:14;4.32;;;1.20;;
27491;SDS011;14927;51.210;6.838;2023-07-13T13:24:00;2.80;;;1.30;;
27491;SDS011;14927;51.210;6.838;2023-07-13T13:26:45;4.25;;;1.40;;
27491;SDS011;14927;51.210;6.838;2023-07-13T13:29:31;1.95;;;0.80;;
27491;SDS011;14927;51.210;6.838;2023-07-13T13:32:17;2.45;;;1.33;;
27491;SDS011;14927;51.210;6.838;2023-07-13T13:35:02;2.92;;;1.00;;
27491;SDS011;14927;51.210;6.838;2023-07-13T13:37:47;2.40;;;1.00;;
27491;SDS011;14927;51.210;6.838;2023-07-13T13:40:34;6.25;;;1.02;;
27491;SDS011;14927;51.210;6.838;2023-07-13T13:43:21;3.50;;;1.35;;
27491;SDS011;14927;51.210;6.838;2023-07-13T13:46:13;4.25;;;1.30;;
27491;SDS011;14927;51.210;6.838;2023-07-13T13:49:01;4.55;;;1.52;;
27491;SDS011;14927;51.210;6.838;2023-07-13T13:51:46;2.10;;;1.13;;
27491;SDS011;14927;51.210;6.838;2023-07-13T13:54:30;6.18;;;1.13;;
27491;SDS011;14927;51.210;6.838;2023-07-13T13:57:15;6.18;;;1.35;;
27491;SDS011;14927;51.210;6.838;2023-07-13T14:00:00;2.45;;;0.90;;
27491;SDS011;14927;51.210;6.838;2023-07-13T14:02:49;3.20;;;1.00;;
27491;SDS011;14927;51.210;6.838;2023-07-13T14:05:35;1.55;;;0.80;;
27491;SDS011;14927;51.210;6.838;2023-07-13T14:08:23;2.40;;;0.88;;
27491;SDS011;14927;51.210;6.838;2023-07-13T14:11:12;5.72;;;1.30;;
27491;SDS011;14927;51.210;6.838;2023-07-13T14:14:00;3.88;;;1.05;;
27491;SDS011;14927;51.210;6.838;2023-07-13T14:16:46;2.95;;;0.80;;
27491;SDS011;14927;51.210;6.838;2023-07-13T14:19:38;2.47;;;1.10;;
27491;SDS011;14927;51.210;6.838;2023-07-13T14:22:24;2.33;;;1.00;;
27491;SDS011;14927;51.210;6.838;2023-07-13T14:25:14;3.97;;;1.00;;
27491;SDS011;14927;51.210;6.838;2023-07-13T14:28:00;2.17;;;0.93;;
27491;SDS011;14927;51.210;6.838;2023-07-13T14:30:59;2.20;;;1.10;;
27491;SDS011;14927;51.210;6.838;2023-07-13T14:33:44;5.28;;;1.27;;
27491;SDS011;14927;51.210;6.838;2023-07-13T14:36:29;3.05;;;1.20;;
27491;SDS011;14927;51.210;6.838;2023-07-13T14:39:19;3.53;;;0.90;;
27491;SDS011;14927;51.210;6.838;2023-07-13T14:42:08;2.30;;;0.88;;
27491;SDS011;14927;51.210;6.838;2023-07-13T14:44:53;3.10;;;1.15;;
27491;SDS011;14927;51.210;6.838;2023-07-13T14:47:38;4.57;;;1.23;;
27491;SDS011;14927;51.210;6.838;2023-07-13T14:50:26;4.65;;;1.52;;
27491;SDS011;14927;51.210;6.838;2023-07-13T14:53:16;3.40;;;1.15;;
27491;SDS011;14927;51.210;6.838;2023-07-13T14:56:01;2.33;;;1.02;;
27491;SDS011;14927;51.210;6.838;2023-07-13T14:58:45;7.05;;;1.52;;
27491;SDS011;14927;51.210;6.838;2023-07-13T15:01:31;9.65;;;2.05;;
27491;SDS011;14927;51.210;6.838;2023-07-13T15:04:15;3.17;;;1.20;;
27491;SDS011;14927;51.210;6.838;2023-07-13T15:07:01;9.52;;;2.10;;
27491;SDS011;14927;51.210;6.838;2023-07-13T15:09:52;9.57;;;2.20;;
27491;SDS011;14927;51.210;6.838;2023-07-13T15:12:37;5.05;;;1.77;;
27491;SDS011;14927;51.210;6.838;2023-07-13T15:15:21;6.47;;;2.13;;
27491;SDS011;14927;51.210;6.838;2023-07-13T15:18:07;7.25;;;1.40;;
27491;SDS011;14927;51.210;6.838;2023-07-13T15:20:55;9.40;;;1.77;;
27491;SDS011;14927;51.210;6.838;2023-07-13T15:23:44;5.03;;;1.40;;
27491;SDS011;14927;51.210;6.838;2023-07-13T15:26:28;4.35;;;1.60;;
27491;SDS011;14927;51.210;6.838;2023-07-13T15:29:13;3.92;;;1.17;;
27491;SDS011;14927;51.210;6.838;2023-07-13T15:31:59;3.10;;;1.08;;
27491;SDS011;14927;51.210;6.838;2023-07-13T15:34:44;7.88;;;1.52;;
27491;SDS011;14927;51.210;6.838;2023-07-13T15:37:29;3.85;;;1.38;;
27491;SDS011;14927;51.210;6.838;2023-07-13T15:40:17;6.60;;;1.55;;
27491;SDS011;14927;51.210;6.838;2023-07-13T15:43:04;6.63;;;2.05;;
27491;SDS011;14927;51.210;6.838;2023-07-13T15:45:55;5.03;;;1.75;;
27491;SDS011;14927;51.210;6.838;2023-07-13T15:48:39;3.85;;;1.48;;
27491;SDS011;14927;51.210;6.838;2023-07-13T15:51:26;5.63;;;1.77;;
27491;SDS011;14927;51.210;6.838;2023-07-13T15:54:13;4.80;;;1.50;;
27491;SDS011;14927;51.210;6.838;2023-07-13T15:57:00;5.30;;;1.60;;
27491;SDS011;14927;51.210;6.838;2023-07-13T15:59:45;5.55;;;1.60;;
27491;SDS011;14927;51.210;6.838;2023-07-13T16:02:30;6.13;;;1.52;;
27491;SDS011;14927;51.210;6.838;2023-07-13T16:05:15;4.57;;;1.60;;
27491;SDS011;14927;51.210;6.838;2023-07-13T16:08:01;5.50;;;1.60;;
27491;SDS011;14927;51.210;6.838;2023-07-13T16:10:47;2.33;;;1.02;;
27491;SDS011;14927;51.210;6.838;2023-07-13T16:13:32;4.53;;;1.15;;
27491;SDS011;14927;51.210;6.838;2023-07-13T16:16:16;3.97;;;1.17;;
27491;SDS011;14927;51.210;6.838;2023-07-13T16:19:02;4.75;;;1.33;;
27491;SDS011;14927;51.210;6.838;2023-07-13T16:21:48;4.50;;;1.40;;
27491;SDS011;14927;51.210;6.838;2023-07-13T16:24:34;3.10;;;1.23;;
27491;SDS011;14927;51.210;6.838;2023-07-13T16:27:19;4.95;;;1.63;;
27491;SDS011;14927;51.210;6.838;2023-07-13T16:30:21;6.78;;;1.15;;
27491;SDS011;14927;51.210;6.838;2023-07-13T16:33:10;3.08;;;1.42;;
27491;SDS011;14927;51.210;6.838;2023-07-13T16:35:55;4.55;;;1.20;;
27491;SDS011;14927;51.210;6.838;2023-07-13T16:38:41;2.70;;;1.20;;
27491;SDS011;14927;51.210;6.838;2023-07-13T16:41:25;3.95;;;1.42;;
27491;SDS011;14927;51.210;6.838;2023-07-13T16:44:15;3.38;;;1.63;;
27491;SDS011;14927;51.210;6.838;2023-07-13T16:47:10;2.90;;;1.40;;
27491;SDS011;14927;51.210;6.838;2023-07-13T16:49:59;2.97;;;1.20;;
27491;SDS011;14927;51.210;6.838;2023-07-13T16:52:48;2.15;;;1.23;;
27491;SDS011;14927;51.210;6.838;2023-07-13T16:55:34;4.70;;;1.27;;
27491;SDS011;14927;51.210;6.838;2023-07-13T16:58:19;4.78;;;0.98;;
27491;SDS011;14927;51.210;6.838;2023-07-13T17:01:04;2.88;;;0.98;;
27491;SDS011;14927;51.210;6.838;2023-07-13T17:03:49;5.93;;;1.30;;
27491;SDS011;14927;51.210;6.838;2023-07-13T17:06:43;3.47;;;1.05;;
27491;SDS011;14927;51.210;6.838;2023-07-13T17:09:30;2.78;;;0.82;;
27491;SDS011;14927;51.210;6.838;2023-07-13T17:12:14;3.83;;;0.75;;
27491;SDS011;14927;51.210;6.838;2023-07-13T17:15:00;3.85;;;1.20;;
27491;SDS011;14927;51.210;6.838;2023-07-13T17:17:47;3.65;;;1.50;;
27491;SDS011;14927;51.210;6.838;2023-07-13T17:20:35;2.00;;;1.13;;
27491;SDS011;14927;51.210;6.838;2023-07-13T17:23:26;2.05;;;1.13;;